sensor_id;sensor_type;location;lat;lon;timestamp;pressure;altitude;pressure_sealevel;temperature;humidity
18569;BME280;14780;48.316;-1.050;2023-05-01T00:00:46;99408.91;;;24.96;41.63
18569;BME280;14780;48.316;-1.050;2023-05-01T00:03:31;99395.22;;;24.96;41.61
18569;BME280;14780;48.316;-1.050;2023-05-01T00:06:16;99400.94;;;24.95;41.61
18569;BME280;14780;48.316;-1.050;2023-05-01T00:09:02;99403.97;;;24.93;41.64
18569;BME280;14780;48.316;-1.050;2023-05-01T00:11:46;99391.94;;;24.94;41.62
18569;BME280;14780;48.316;-1.050;2023-05-01T00:14:31;99401.25;;;24.93;41.71
18569;BME280;14780;48.316;-1.050;2023-05-01T00:17:16;99396.03;;;24.92;41.63
18569;BME280;14780;48.316;-1.050;2023-05-01T00:20:01;99397.66;;;24.93;41.69
18569;BME280;14780;48.316;-1.050;2023-05-01T00:22:48;99394.38;;;24.91;41.63
18569;BME280;14780;48.316;-1.050;2023-05-01T00:25:33;99393.84;;;24.89;41.69
18569;BME280;14780;48.316;-1.050;2023-05-01T00:28:18;99380.16;;;24.89;41.73
18569;BME280;14780;48.316;-1.050;2023-05-01T00:31:03;99386.72;;;24.88;41.65
18569;BME280;14780;48.316;-1.050;2023-05-01T00:33:48;99383.16;;;24.87;41.71
18569;BME280;14780;48.316;-1.050;2023-05-01T00:36:33;99376.84;;;24.87;41.65
18569;BME280;14780;48.316;-1.050;2023-05-01T00:39:17;99372.47;;;24.86;41.62
18569;BME280;14780;48.316;-1.050;2023-05-01T00:42:02;99368.09;;;24.85;41.75
18569;BME280;14780;48.316;-1.050;2023-05-01T00:44:47;99370.00;;;24.84;41.58
18569;BME280;14780;48.316;-1.050;2023-05-01T00:47:34;99363.47;;;24.85;41.68
18569;BME280;14780;48.316;-1.050;2023-05-01T00:50:18;99356.31;;;24.84;41.55
18569;BME280;14780;48.316;-1.050;2023-05-01T00:53:03;99355.78;;;24.82;41.66
18569;BME280;14780;48.316;-1.050;2023-05-01T00:55:48;99360.44;;;24.82;41.67
18569;BME280;14780;48.316;-1.050;2023-05-01T00:58:34;99344.28;;;24.80;41.67
18569;BME280;14780;48.316;-1.050;2023-05-01T01:01:20;99341.56;;;24.80;41.55
18569;BME280;14780;48.316;-1.050;2023-05-01T01:04:05;99352.50;;;24.80;41.52
18569;BME280;14780;48.316;-1.050;2023-05-01T01:07:22;99335.81;;;24.82;41.48
18569;BME280;14780;48.316;-1.050;2023-05-01T01:10:34;99344.03;;;24.82;41.48
18569;BME280;14780;48.316;-1.050;2023-05-01T01:13:29;99334.97;;;24.76;41.74
18569;BME280;14780;48.316;-1.050;2023-05-01T01:22:40;99328.69;;;24.76;41.72
18569;BME280;14780;48.316;-1.050;2023-05-01T01:35:05;99330.34;;;24.77;41.53
18569;BME280;14780;48.316;-1.050;2023-05-01T01:38:15;99331.69;;;24.74;41.61
18569;BME280;14780;48.316;-1.050;2023-05-01T01:41:51;99328.97;;;24.74;41.63
18569;BME280;14780;48.316;-1.050;2023-05-01T01:47:09;99334.41;;;24.69;41.72
18569;BME280;14780;48.316;-1.050;2023-05-01T01:49:56;99336.88;;;24.71;41.60
18569;BME280;14780;48.316;-1.050;2023-05-01T01:52:42;99331.66;;;24.69;41.56
18569;BME280;14780;48.316;-1.050;2023-05-01T01:55:30;99325.41;;;24.69;41.68
18569;BME280;14780;48.316;-1.050;2023-05-01T01:58:16;99323.47;;;24.69;41.58
18569;BME280;14780;48.316;-1.050;2023-05-01T02:01:03;99326.19;;;24.69;41.62
18569;BME280;14780;48.316;-1.050;2023-05-01T02:03:49;99310.34;;;24.66;41.57
18569;BME280;14780;48.316;-1.050;2023-05-01T02:06:37;99318.56;;;24.66;41.65
18569;BME280;14780;48.316;-1.050;2023-05-01T02:09:25;99315.28;;;24.64;41.54
18569;BME280;14780;48.316;-1.050;2023-05-01T02:12:12;99305.13;;;24.65;41.51
18569;BME280;14780;48.316;-1.050;2023-05-01T02:14:59;99311.44;;;24.65;41.61
18569;BME280;14780;48.316;-1.050;2023-05-01T02:17:44;99311.69;;;24.64;41.58
18569;BME280;14780;48.316;-1.050;2023-05-01T02:20:29;99308.72;;;24.65;41.52
18569;BME280;14780;48.316;-1.050;2023-05-01T02:23:14;99313.59;;;24.63;41.51
18569;BME280;14780;48.316;-1.050;2023-05-01T02:26:02;99301.84;;;24.63;41.49
18569;BME280;14780;48.316;-1.050;2023-05-01T02:28:47;99311.16;;;24.62;41.60
18569;BME280;14780;48.316;-1.050;2023-05-01T02:31:33;99302.94;;;24.62;41.52
18569;BME280;14780;48.316;-1.050;2023-05-01T02:34:18;99303.22;;;24.60;41.49
18569;BME280;14780;48.316;-1.050;2023-05-01T02:37:05;99309.22;;;24.62;41.46
18569;BME280;14780;48.316;-1.050;2023-05-01T02:39:51;99297.75;;;24.60;41.51
18569;BME280;14780;48.316;-1.050;2023-05-01T02:42:38;99297.75;;;24.60;41.62
18569;BME280;14780;48.316;-1.050;2023-05-01T02:45:24;99303.47;;;24.59;41.53
18569;BME280;14780;48.316;-1.050;2023-05-01T02:48:10;99297.19;;;24.58;41.63
18569;BME280;14780;48.316;-1.050;2023-05-01T02:50:56;99298.00;;;24.59;41.50
18569;BME280;14780;48.316;-1.050;2023-05-01T02:53:41;99292.84;;;24.57;41.59
18569;BME280;14780;48.316;-1.050;2023-05-01T02:56:26;99301.03;;;24.57;41.59
18569;BME280;14780;48.316;-1.050;2023-05-01T02:59:11;99297.19;;;24.58;41.44
18569;BME280;14780;48.316;-1.050;2023-05-01T03:01:57;99293.91;;;24.56;41.53
18569;BME280;14780;48.316;-1.050;2023-05-01T03:04:42;99291.16;;;24.56;41.60
18569;BME280;14780;48.316;-1.050;2023-05-01T03:07:27;99291.41;;;24.55;41.47
18569;BME280;14780;48.316;-1.050;2023-05-01T03:10:18;99288.69;;;24.55;41.38
18569;BME280;14780;48.316;-1.050;2023-05-01T03:13:03;99284.56;;;24.52;41.45
18569;BME280;14780;48.316;-1.050;2023-05-01T03:15:47;99290.88;;;24.53;41.44
18569;BME280;14780;48.316;-1.050;2023-05-01T03:18:32;99288.94;;;24.53;41.46
18569;BME280;14780;48.316;-1.050;2023-05-01T03:21:16;99294.69;;;24.52;41.47
18569;BME280;14780;48.316;-1.050;2023-05-01T03:24:01;99294.97;;;24.50;41.43
18569;BME280;14780;48.316;-1.050;2023-05-01T03:26:47;99291.16;;;24.51;41.54
18569;BME280;14780;48.316;-1.050;2023-05-01T03:29:32;99291.16;;;24.51;41.42
18569;BME280;14780;48.316;-1.050;2023-05-01T03:32:23;99292.25;;;24.50;41.43
18569;BME280;14780;48.316;-1.050;2023-05-01T03:35:08;99285.94;;;24.50;41.43
18569;BME280;14780;48.316;-1.050;2023-05-01T03:37:53;99282.09;;;24.51;41.42
18569;BME280;14780;48.316;-1.050;2023-05-01T03:40:38;99275.25;;;24.48;41.56
18569;BME280;14780;48.316;-1.050;2023-05-01T03:43:23;99277.19;;;24.48;41.51
18569;BME280;14780;48.316;-1.050;2023-05-01T03:46:08;99288.94;;;24.48;41.55
18569;BME280;14780;48.316;-1.050;2023-05-01T03:48:53;99287.28;;;24.47;41.36
18569;BME280;14780;48.316;-1.050;2023-05-01T03:51:38;99288.38;;;24.46;41.42
18569;BME280;14780;48.316;-1.050;2023-05-01T03:54:23;99288.38;;;24.46;41.42
18569;BME280;14780;48.316;-1.050;2023-05-01T03:57:08;99284.00;;;24.45;41.50
18569;BME280;14780;48.316;-1.050;2023-05-01T03:59:53;99296.06;;;24.44;41.42
18569;BME280;14780;48.316;-1.050;2023-05-01T04:02:37;99294.13;;;24.45;41.45
18569;BME280;14780;48.316;-1.050;2023-05-01T04:05:22;99293.31;;;24.44;41.45
18569;BME280;14780;48.316;-1.050;2023-05-01T04:08:07;99299.88;;;24.43;41.53
18569;BME280;14780;48.316;-1.050;2023-05-01T04:10:52;99293.59;;;24.43;41.52
18569;BME280;14780;48.316;-1.050;2023-05-01T04:13:37;99290.03;;;24.42;41.52
18569;BME280;14780;48.316;-1.050;2023-05-01T04:16:21;99292.22;;;24.40;41.35
18569;BME280;14780;48.316;-1.050;2023-05-01T04:19:06;99293.31;;;24.39;41.40
18569;BME280;14780;48.316;-1.050;2023-05-01T04:21:53;99292.22;;;24.40;41.41
18569;BME280;14780;48.316;-1.050;2023-05-01T04:24:38;99289.47;;;24.40;41.36
18569;BME280;14780;48.316;-1.050;2023-05-01T04:27:23;99285.09;;;24.39;41.45
18569;BME280;14780;48.316;-1.050;2023-05-01T04:30:09;99278.00;;;24.38;41.34
18569;BME280;14780;48.316;-1.050;2023-05-01T04:32:54;99288.94;;;24.38;41.42
18569;BME280;14780;48.316;-1.050;2023-05-01T04:35:42;99287.28;;;24.37;41.38
18569;BME280;14780;48.316;-1.050;2023-05-01T04:38:27;99291.91;;;24.37;41.41
18569;BME280;14780;48.316;-1.050;2023-05-01T04:41:13;99300.41;;;24.35;41.35
18569;BME280;14780;48.316;-1.050;2023-05-01T04:43:58;99295.75;;;24.36;41.27
18569;BME280;14780;48.316;-1.050;2023-05-01T04:46:43;99298.75;;;24.34;41.44
18569;BME280;14780;48.316;-1.050;2023-05-01T04:49:28;99301.22;;;24.36;41.45
18569;BME280;14780;48.316;-1.050;2023-05-01T04:52:13;99307.53;;;24.36;41.36
18569;BME280;14780;48.316;-1.050;2023-05-01T04:54:57;99306.97;;;24.34;41.40
18569;BME280;14780;48.316;-1.050;2023-05-01T04:57:42;99309.69;;;24.34;41.37
18569;BME280;14780;48.316;-1.050;2023-05-01T05:00:27;99310.53;;;24.35;41.29
18569;BME280;14780;48.316;-1.050;2023-05-01T05:03:11;99311.63;;;24.34;41.38
18569;BME280;14780;48.316;-1.050;2023-05-01T05:05:56;99315.44;;;24.33;41.39
18569;BME280;14780;48.316;-1.050;2023-05-01T05:08:41;99316.53;;;24.32;41.42
18569;BME280;14780;48.316;-1.050;2023-05-01T05:11:26;99323.38;;;24.34;41.27
18569;BME280;14780;48.316;-1.050;2023-05-01T05:14:11;99318.19;;;24.33;41.33
18569;BME280;14780;48.316;-1.050;2023-05-01T05:16:55;99320.91;;;24.33;41.41
18569;BME280;14780;48.316;-1.050;2023-05-01T05:19:40;99324.47;;;24.33;41.48
18569;BME280;14780;48.316;-1.050;2023-05-01T05:22:24;99335.41;;;24.33;41.29
18569;BME280;14780;48.316;-1.050;2023-05-01T05:25:10;99328.28;;;24.32;41.40
18569;BME280;14780;48.316;-1.050;2023-05-01T05:27:54;99331.03;;;24.32;41.38
18569;BME280;14780;48.316;-1.050;2023-05-01T05:30:39;99328.28;;;24.32;41.23
18569;BME280;14780;48.316;-1.050;2023-05-01T05:33:23;99332.13;;;24.31;41.28
18569;BME280;14780;48.316;-1.050;2023-05-01T05:36:09;99330.47;;;24.30;41.36
18569;BME280;14780;48.316;-1.050;2023-05-01T05:38:54;99329.38;;;24.31;41.24
18569;BME280;14780;48.316;-1.050;2023-05-01T05:41:39;99331.28;;;24.31;41.10
18569;BME280;14780;48.316;-1.050;2023-05-01T05:44:23;99325.00;;;24.30;41.28
18569;BME280;14780;48.316;-1.050;2023-05-01T05:47:08;99331.56;;;24.29;41.28
18569;BME280;14780;48.316;-1.050;2023-05-01T05:49:53;99338.94;;;24.29;41.29
18569;BME280;14780;48.316;-1.050;2023-05-01T05:52:39;99328.84;;;24.29;41.34
18569;BME280;14780;48.316;-1.050;2023-05-01T05:55:23;99328.00;;;24.29;41.31
18569;BME280;14780;48.316;-1.050;2023-05-01T05:58:08;99336.47;;;24.27;41.30
18569;BME280;14780;48.316;-1.050;2023-05-01T06:00:53;99341.94;;;24.27;41.33
18569;BME280;14780;48.316;-1.050;2023-05-01T06:03:39;99340.28;;;24.26;41.16
18569;BME280;14780;48.316;-1.050;2023-05-01T06:06:24;99352.06;;;24.27;41.15
18569;BME280;14780;48.316;-1.050;2023-05-01T06:09:09;99355.06;;;24.25;41.31
18569;BME280;14780;48.316;-1.050;2023-05-01T06:11:56;99357.00;;;24.25;41.17
18569;BME280;14780;48.316;-1.050;2023-05-01T06:14:41;99358.34;;;24.27;41.25
18569;BME280;14780;48.316;-1.050;2023-05-01T06:17:26;99356.69;;;24.26;41.21
18569;BME280;14780;48.316;-1.050;2023-05-01T06:20:12;99363.81;;;24.27;41.09
18569;BME280;14780;48.316;-1.050;2023-05-01T06:22:58;99364.91;;;24.26;41.23
18569;BME280;14780;48.316;-1.050;2023-05-01T06:25:42;99360.78;;;24.24;41.23
18569;BME280;14780;48.316;-1.050;2023-05-01T06:28:27;99363.53;;;24.24;41.23
18569;BME280;14780;48.316;-1.050;2023-05-01T06:31:12;99360.00;;;24.23;41.11
18569;BME280;14780;48.316;-1.050;2023-05-01T06:33:56;99359.72;;;24.25;41.14
18569;BME280;14780;48.316;-1.050;2023-05-01T06:36:41;99362.47;;;24.25;41.29
18569;BME280;14780;48.316;-1.050;2023-05-01T06:39:25;99365.47;;;24.23;41.12
18569;BME280;14780;48.316;-1.050;2023-05-01T06:42:10;99370.09;;;24.23;41.27
18569;BME280;14780;48.316;-1.050;2023-05-01T06:44:59;99366.56;;;24.22;41.28
18569;BME280;14780;48.316;-1.050;2023-05-01T06:47:44;99376.41;;;24.23;41.24
18569;BME280;14780;48.316;-1.050;2023-05-01T06:50:28;99373.66;;;24.23;41.27
18569;BME280;14780;48.316;-1.050;2023-05-01T06:53:13;99368.19;;;24.23;41.22
18569;BME280;14780;48.316;-1.050;2023-05-01T06:55:58;99371.72;;;24.24;41.21
18569;BME280;14780;48.316;-1.050;2023-05-01T06:58:42;99377.78;;;24.26;41.17
18569;BME280;14780;48.316;-1.050;2023-05-01T07:01:27;99379.94;;;24.24;41.27
18569;BME280;14780;48.316;-1.050;2023-05-01T07:04:13;99390.63;;;24.25;41.30
18569;BME280;14780;48.316;-1.050;2023-05-01T07:06:58;99383.25;;;24.26;41.32
18569;BME280;14780;48.316;-1.050;2023-05-01T07:09:42;99383.50;;;24.24;41.26
18569;BME280;14780;48.316;-1.050;2023-05-01T07:12:28;99388.72;;;24.26;41.27
18569;BME280;14780;48.316;-1.050;2023-05-01T07:15:13;99380.22;;;24.27;41.22
18569;BME280;14780;48.316;-1.050;2023-05-01T07:17:59;99384.06;;;24.26;41.30
18569;BME280;14780;48.316;-1.050;2023-05-01T07:20:46;99384.88;;;24.27;41.29
18569;BME280;14780;48.316;-1.050;2023-05-01T07:23:33;99391.16;;;24.27;41.29
18569;BME280;14780;48.316;-1.050;2023-05-01T07:26:18;99390.34;;;24.27;41.28
18569;BME280;14780;48.316;-1.050;2023-05-01T07:29:03;99394.19;;;24.26;41.33
18569;BME280;14780;48.316;-1.050;2023-05-01T07:31:48;99391.16;;;24.27;41.42
18569;BME280;14780;48.316;-1.050;2023-05-01T07:34:33;99392.00;;;24.28;41.33
18569;BME280;14780;48.316;-1.050;2023-05-01T07:37:18;99396.63;;;24.27;41.41
18569;BME280;14780;48.316;-1.050;2023-05-01T07:40:03;99404.56;;;24.29;41.44
18569;BME280;14780;48.316;-1.050;2023-05-01T07:42:47;99402.69;;;24.29;41.58
18569;BME280;14780;48.316;-1.050;2023-05-01T07:45:32;99407.06;;;24.30;41.51
18569;BME280;14780;48.316;-1.050;2023-05-01T07:48:17;99409.22;;;24.33;41.57
18569;BME280;14780;48.316;-1.050;2023-05-01T07:51:02;99416.34;;;24.34;41.64
18569;BME280;14780;48.316;-1.050;2023-05-01T07:53:47;99413.09;;;24.37;41.67
18569;BME280;14780;48.316;-1.050;2023-05-01T07:56:32;99419.66;;;24.41;41.65
18569;BME280;14780;48.316;-1.050;2023-05-01T07:59:17;99413.66;;;24.44;41.66
18569;BME280;14780;48.316;-1.050;2023-05-01T08:02:02;99414.22;;;24.46;41.67
18569;BME280;14780;48.316;-1.050;2023-05-01T08:04:46;99405.50;;;24.49;41.57
18569;BME280;14780;48.316;-1.050;2023-05-01T08:07:31;99419.72;;;24.51;41.63
18569;BME280;14780;48.316;-1.050;2023-05-01T08:10:16;99417.78;;;24.52;41.73
18569;BME280;14780;48.316;-1.050;2023-05-01T08:13:01;99413.69;;;24.54;41.64
18569;BME280;14780;48.316;-1.050;2023-05-01T08:15:46;99415.38;;;24.55;41.65
18569;BME280;14780;48.316;-1.050;2023-05-01T08:18:31;99413.22;;;24.57;41.60
18569;BME280;14780;48.316;-1.050;2023-05-01T08:21:16;99413.50;;;24.61;41.90
18569;BME280;14780;48.316;-1.050;2023-05-01T08:24:01;99410.75;;;24.66;42.07
18569;BME280;14780;48.316;-1.050;2023-05-01T08:26:45;99408.59;;;24.68;41.95
18569;BME280;14780;48.316;-1.050;2023-05-01T08:29:32;99405.84;;;24.68;41.62
18569;BME280;14780;48.316;-1.050;2023-05-01T08:32:18;99409.38;;;24.63;41.71
18569;BME280;14780;48.316;-1.050;2023-05-01T08:35:03;99415.13;;;24.62;41.84
18569;BME280;14780;48.316;-1.050;2023-05-01T08:37:48;99418.13;;;24.60;41.64
18569;BME280;14780;48.316;-1.050;2023-05-01T08:40:36;99416.47;;;24.59;41.61
18569;BME280;14780;48.316;-1.050;2023-05-01T08:43:28;99415.94;;;24.62;41.49
18569;BME280;14780;48.316;-1.050;2023-05-01T08:46:23;99422.75;;;24.60;41.47
18569;BME280;14780;48.316;-1.050;2023-05-01T08:49:11;99413.50;;;24.61;41.55
18569;BME280;14780;48.316;-1.050;2023-05-01T08:52:00;99417.03;;;24.61;41.38
18569;BME280;14780;48.316;-1.050;2023-05-01T08:54:47;99413.19;;;24.62;41.34
18569;BME280;14780;48.316;-1.050;2023-05-01T08:57:34;99419.25;;;24.64;41.36
18569;BME280;14780;48.316;-1.050;2023-05-01T09:00:21;99420.03;;;24.65;41.27
18569;BME280;14780;48.316;-1.050;2023-05-01T09:03:06;99422.78;;;24.65;41.42
18569;BME280;14780;48.316;-1.050;2023-05-01T09:05:52;99425.00;;;24.68;41.47
18569;BME280;14780;48.316;-1.050;2023-05-01T09:08:38;99418.13;;;24.70;41.27
18569;BME280;14780;48.316;-1.050;2023-05-01T09:11:22;99429.91;;;24.71;41.25
18569;BME280;14780;48.316;-1.050;2023-05-01T09:14:08;99437.88;;;24.72;41.27
18569;BME280;14780;48.316;-1.050;2023-05-01T09:16:52;99437.88;;;24.72;41.32
18569;BME280;14780;48.316;-1.050;2023-05-01T09:19:37;99442.25;;;24.73;41.34
18569;BME280;14780;48.316;-1.050;2023-05-01T09:22:23;99447.72;;;24.73;41.37
18569;BME280;14780;48.316;-1.050;2023-05-01T09:25:08;99449.09;;;24.76;41.21
18569;BME280;14780;48.316;-1.050;2023-05-01T09:27:54;99437.31;;;24.75;41.21
18569;BME280;14780;48.316;-1.050;2023-05-01T09:30:40;99443.63;;;24.76;41.11
18569;BME280;14780;48.316;-1.050;2023-05-01T09:33:26;99440.59;;;24.77;41.23
18569;BME280;14780;48.316;-1.050;2023-05-01T09:36:16;99443.91;;;24.79;41.21
18569;BME280;14780;48.316;-1.050;2023-05-01T09:39:02;99440.06;;;24.80;41.23
18569;BME280;14780;48.316;-1.050;2023-05-01T09:41:50;99450.47;;;24.83;41.31
18569;BME280;14780;48.316;-1.050;2023-05-01T09:44:42;99449.13;;;24.86;41.12
18569;BME280;14780;48.316;-1.050;2023-05-01T09:47:27;99448.31;;;24.90;41.03
18569;BME280;14780;48.316;-1.050;2023-05-01T09:50:29;99465.03;;;24.89;41.07
18569;BME280;14780;48.316;-1.050;2023-05-01T09:53:15;99469.66;;;24.88;41.17
18569;BME280;14780;48.316;-1.050;2023-05-01T09:56:00;99471.28;;;24.89;41.05
18569;BME280;14780;48.316;-1.050;2023-05-01T09:58:45;99478.41;;;24.90;40.97
18569;BME280;14780;48.316;-1.050;2023-05-01T10:01:41;99467.47;;;24.95;40.99
18569;BME280;14780;48.316;-1.050;2023-05-01T10:04:33;99477.34;;;24.96;40.92
18569;BME280;14780;48.316;-1.050;2023-05-01T10:07:18;99481.72;;;24.97;40.96
18569;BME280;14780;48.316;-1.050;2023-05-01T10:10:21;99470.78;;;25.02;40.72
18569;BME280;14780;48.316;-1.050;2023-05-01T10:13:15;99475.44;;;25.02;40.61
18569;BME280;14780;48.316;-1.050;2023-05-01T10:16:00;99476.50;;;24.96;40.20
18569;BME280;14780;48.316;-1.050;2023-05-01T10:18:49;99475.16;;;24.93;40.11
18569;BME280;14780;48.316;-1.050;2023-05-01T10:21:34;99478.41;;;24.90;39.83
18569;BME280;14780;48.316;-1.050;2023-05-01T10:24:20;99480.59;;;24.88;39.44
18569;BME280;14780;48.316;-1.050;2023-05-01T10:27:09;99483.88;;;24.90;39.57
18569;BME280;14780;48.316;-1.050;2023-05-01T10:29:56;99483.88;;;24.90;39.54
18569;BME280;14780;48.316;-1.050;2023-05-01T10:32:44;99477.31;;;24.86;39.16
18569;BME280;14780;48.316;-1.050;2023-05-01T10:35:31;99478.41;;;24.80;38.24
18569;BME280;14780;48.316;-1.050;2023-05-01T10:38:28;99476.75;;;24.79;38.48
18569;BME280;14780;48.316;-1.050;2023-05-01T10:41:23;99471.53;;;24.78;38.94
18569;BME280;14780;48.316;-1.050;2023-05-01T10:44:23;99479.22;;;24.76;38.81
18569;BME280;14780;48.316;-1.050;2023-05-01T10:50:26;99480.00;;;24.76;38.84
18569;BME280;14780;48.316;-1.050;2023-05-01T10:55:56;99478.41;;;24.80;38.88
18569;BME280;14780;48.316;-1.050;2023-05-01T11:09:53;99474.56;;;24.91;38.85
18569;BME280;14780;48.316;-1.050;2023-05-01T11:15:33;99481.16;;;24.95;39.05
18569;BME280;14780;48.316;-1.050;2023-05-01T11:18:44;99487.47;;;25.01;39.43
18569;BME280;14780;48.316;-1.050;2023-05-01T11:21:32;99491.63;;;25.08;39.73
18569;BME280;14780;48.316;-1.050;2023-05-01T11:24:18;99487.25;;;25.17;39.62
18569;BME280;14780;48.316;-1.050;2023-05-01T11:27:03;99487.28;;;25.22;39.63
18569;BME280;14780;48.316;-1.050;2023-05-01T11:29:49;99487.28;;;25.22;39.58
18569;BME280;14780;48.316;-1.050;2023-05-01T11:32:34;99479.63;;;25.24;39.72
18569;BME280;14780;48.316;-1.050;2023-05-01T11:35:23;99475.78;;;25.25;39.54
18569;BME280;14780;48.316;-1.050;2023-05-01T11:38:18;99476.88;;;25.24;39.37
18569;BME280;14780;48.316;-1.050;2023-05-01T11:41:03;99472.22;;;25.30;39.33
18569;BME280;14780;48.316;-1.050;2023-05-01T11:43:49;99484.00;;;25.30;39.39
18569;BME280;14780;48.316;-1.050;2023-05-01T11:46:37;99475.22;;;25.28;39.36
18569;BME280;14780;48.316;-1.050;2023-05-01T11:49:28;99482.38;;;25.29;39.41
18569;BME280;14780;48.316;-1.050;2023-05-01T11:52:13;99484.28;;;25.29;39.45
18569;BME280;14780;48.316;-1.050;2023-05-01T11:54:58;99490.03;;;25.27;39.36
18569;BME280;14780;48.316;-1.050;2023-05-01T11:57:52;99494.13;;;25.30;39.58
18569;BME280;14780;48.316;-1.050;2023-05-01T12:00:40;99487.03;;;25.29;39.44
18569;BME280;14780;48.316;-1.050;2023-05-01T12:03:25;99483.19;;;25.30;39.34
18569;BME280;14780;48.316;-1.050;2023-05-01T12:06:11;99476.34;;;25.32;39.37
18569;BME280;14780;48.316;-1.050;2023-05-01T12:08:59;99480.72;;;25.33;39.26
18569;BME280;14780;48.316;-1.050;2023-05-01T12:11:46;99483.47;;;25.33;39.39
18569;BME280;14780;48.316;-1.050;2023-05-01T12:14:31;99492.22;;;25.35;39.38
18569;BME280;14780;48.316;-1.050;2023-05-01T12:17:16;99485.94;;;25.35;39.38
18569;BME280;14780;48.316;-1.050;2023-05-01T12:20:01;99480.47;;;25.35;39.33
18569;BME280;14780;48.316;-1.050;2023-05-01T12:22:49;99488.41;;;25.36;39.28
18569;BME280;14780;48.316;-1.050;2023-05-01T12:25:35;99477.16;;;25.38;39.24
18569;BME280;14780;48.316;-1.050;2023-05-01T12:28:20;99472.50;;;25.38;39.18
18569;BME280;14780;48.316;-1.050;2023-05-01T12:31:05;99475.25;;;25.38;39.03
18569;BME280;14780;48.316;-1.050;2023-05-01T12:33:58;99480.47;;;25.40;39.09
18569;BME280;14780;48.316;-1.050;2023-05-01T12:36:52;99481.81;;;25.42;39.06
18569;BME280;14780;48.316;-1.050;2023-05-01T12:39:38;99464.56;;;25.42;39.04
18569;BME280;14780;48.316;-1.050;2023-05-01T12:42:25;99476.06;;;25.44;39.09
18569;BME280;14780;48.316;-1.050;2023-05-01T12:45:10;99483.75;;;25.47;39.02
18569;BME280;14780;48.316;-1.050;2023-05-01T12:47:58;99470.59;;;25.49;38.99
18569;BME280;14780;48.316;-1.050;2023-05-01T12:50:43;99482.09;;;25.51;39.03
18569;BME280;14780;48.316;-1.050;2023-05-01T12:53:30;99486.22;;;25.53;39.03
18569;BME280;14780;48.316;-1.050;2023-05-01T12:56:23;99480.47;;;25.55;38.94
18569;BME280;14780;48.316;-1.050;2023-05-01T12:59:23;99482.13;;;25.56;38.87
18569;BME280;14780;48.316;-1.050;2023-05-01T13:02:12;99490.34;;;25.56;38.91
18569;BME280;14780;48.316;-1.050;2023-05-01T13:05:10;99497.19;;;25.58;38.85
18569;BME280;14780;48.316;-1.050;2023-05-01T13:07:55;99491.44;;;25.55;39.05
18569;BME280;14780;48.316;-1.050;2023-05-01T13:10:41;99498.56;;;25.56;38.81
18569;BME280;14780;48.316;-1.050;2023-05-01T13:13:28;99495.56;;;25.57;38.83
18569;BME280;14780;48.316;-1.050;2023-05-01T13:16:15;99498.56;;;25.56;38.88
18569;BME280;14780;48.316;-1.050;2023-05-01T13:18:59;99493.88;;;25.56;38.73
18569;BME280;14780;48.316;-1.050;2023-05-01T13:21:49;99502.09;;;25.56;38.82
18569;BME280;14780;48.316;-1.050;2023-05-01T13:24:39;99503.19;;;25.55;38.75
18569;BME280;14780;48.316;-1.050;2023-05-01T13:27:24;99498.28;;;25.57;38.72
18569;BME280;14780;48.316;-1.050;2023-05-01T13:30:09;99491.13;;;25.56;38.82
18569;BME280;14780;48.316;-1.050;2023-05-01T13:32:55;99496.34;;;25.58;38.86
18569;BME280;14780;48.316;-1.050;2023-05-01T13:35:40;99502.38;;;25.60;38.90
18569;BME280;14780;48.316;-1.050;2023-05-01T13:38:25;99499.63;;;25.60;38.99
18569;BME280;14780;48.316;-1.050;2023-05-01T13:41:19;99510.34;;;25.61;39.11
18569;BME280;14780;48.316;-1.050;2023-05-01T13:44:06;99512.50;;;25.64;39.41
18569;BME280;14780;48.316;-1.050;2023-05-01T13:46:51;99501.03;;;25.67;39.25
18569;BME280;14780;48.316;-1.050;2023-05-01T13:49:40;99508.69;;;25.70;39.28
18569;BME280;14780;48.316;-1.050;2023-05-01T13:52:26;99509.78;;;25.69;39.08
18569;BME280;14780;48.316;-1.050;2023-05-01T13:55:12;99504.88;;;25.66;39.24
18569;BME280;14780;48.316;-1.050;2023-05-01T13:57:56;99504.88;;;25.66;39.00
18569;BME280;14780;48.316;-1.050;2023-05-01T14:00:44;99504.28;;;25.64;39.08
18569;BME280;14780;48.316;-1.050;2023-05-01T14:03:37;99501.84;;;25.63;39.03
18569;BME280;14780;48.316;-1.050;2023-05-01T14:06:23;99503.22;;;25.65;38.91
18569;BME280;14780;48.316;-1.050;2023-05-01T14:09:08;99508.69;;;25.65;39.15
18569;BME280;14780;48.316;-1.050;2023-05-01T14:11:53;99506.50;;;25.67;39.06
18569;BME280;14780;48.316;-1.050;2023-05-01T14:14:46;99507.88;;;25.70;39.06
18569;BME280;14780;48.316;-1.050;2023-05-01T14:17:32;99504.31;;;25.69;39.08
18569;BME280;14780;48.316;-1.050;2023-05-01T14:20:18;99500.47;;;25.70;39.11
18569;BME280;14780;48.316;-1.050;2023-05-01T14:23:03;99502.09;;;25.71;39.08
18569;BME280;14780;48.316;-1.050;2023-05-01T14:25:49;99494.72;;;25.77;38.99
18569;BME280;14780;48.316;-1.050;2023-05-01T14:28:41;99494.41;;;25.78;39.10
18569;BME280;14780;48.316;-1.050;2023-05-01T14:31:29;99503.75;;;25.77;39.22
18569;BME280;14780;48.316;-1.050;2023-05-01T14:34:16;99498.00;;;25.79;39.05
18569;BME280;14780;48.316;-1.050;2023-05-01T14:37:02;99491.16;;;25.81;39.15
18569;BME280;14780;48.316;-1.050;2023-05-01T14:39:47;99488.94;;;25.83;39.11
18569;BME280;14780;48.316;-1.050;2023-05-01T14:42:31;99488.16;;;25.83;39.11
18569;BME280;14780;48.316;-1.050;2023-05-01T14:45:18;99488.41;;;25.86;39.09
18569;BME280;14780;48.316;-1.050;2023-05-01T14:48:03;99482.94;;;25.86;39.03
18569;BME280;14780;48.316;-1.050;2023-05-01T14:50:49;99482.94;;;25.86;39.02
18569;BME280;14780;48.316;-1.050;2023-05-01T14:53:34;99482.94;;;25.86;39.04
18569;BME280;14780;48.316;-1.050;2023-05-01T14:56:19;99480.47;;;25.85;38.91
18569;BME280;14780;48.316;-1.050;2023-05-01T14:59:05;99471.97;;;25.86;38.96
18569;BME280;14780;48.316;-1.050;2023-05-01T15:01:49;99477.75;;;25.90;39.01
18569;BME280;14780;48.316;-1.050;2023-05-01T15:04:34;99478.56;;;25.90;38.99
18569;BME280;14780;48.316;-1.050;2023-05-01T15:07:19;99474.72;;;25.91;38.99
18569;BME280;14780;48.316;-1.050;2023-05-01T15:10:04;99464.84;;;25.90;38.94